Hauptseite
METAR-TAF:

METAR-TAF

Flughäfen :

East Midlands Airport

East Midlands, England

Breite: 52-50N, Länge: 001-20W, Höhe: 94 m

Beobachtung

Neuester Wetterbericht von vor 14 Minuten, um 06:50 UTC
Wind 6 kt aus Südost
Temperatur 17°C
Luftfeuchtigkeit 63%
Luftdruck 1018 hPa
Sichtweite 10 km oder mehr
keine Wolken unter 1500 m und keine Kumulonimbus oder Gewitterwolken

METAR: EGNX 180650Z 13006KT CAVOK 17/10 Q1018

Zeit: 08:04 (07:04 UTC)

Prognose

Neuester Wetterbericht von vor 2 Stunden und 3 Minuten, um 05:01 UTC
Gültige Prognose vom 18 um 06 UTC bis 19 um 06 UTC
Wind 7 kt aus West/Südwest
Sichtweite 10 km oder mehr
Aufgelockert bewölkt in der Höhe von 4000 ft
Wahrscheinlichkeit 30% :
Zeitweise
vom 18 um 10 UTC bis 18 um 12 UTC
Sichtweite: 8000 m
Leichtregen

TAF: EGNX 180501Z 1806/1906 25007KT 9999 SCT040 PROB30 TEMPO 1810/1812 8000 -RA

Wetterbeobachtungen und Prognosen von mehr als 4000 Flughäfen (METAR und TAF Bericht).

Die verfügbaren Stationen werden durch gelbe und rote Markierungen auf der Karte dargestellt.

Führen Sie die Maus auf sie, um den Namen der Station zu sehen.

Darauf klicken, um die Beobachtung von Wetterbeobachtungen und Prognosen zu sehen.

Um die Karte zu ändern : klicken Sie auf den grünen Tasten mit einem schwarzen Kreuz Zum Vergrößern, auf den grünen Button mit einem Gedankenstrich zu verkleinern, oder auf die grünen Pfeile für benachbarte Karten.


METAR-TAF: